sensor_id;sensor_type;location;lat;lon;timestamp;pressure;altitude;pressure_sealevel;temperature;humidity
77149;BME280;66122;47.130;16.844;2024-02-28T00:05:06;99603.81;;;7.77;100.00
77149;BME280;66122;47.130;16.844;2024-02-28T00:15:09;99604.44;;;7.82;100.00
77149;BME280;66122;47.130;16.844;2024-02-28T00:25:13;99602.84;;;7.78;100.00
77149;BME280;66122;47.130;16.844;2024-02-28T00:35:16;99603.41;;;7.66;100.00
77149;BME280;66122;47.130;16.844;2024-02-28T00:45:18;99599.56;;;7.55;100.00
77149;BME280;66122;47.130;16.844;2024-02-28T00:55:21;99608.66;;;7.48;100.00
77149;BME280;66122;47.130;16.844;2024-02-28T01:05:23;99606.47;;;7.37;100.00
77149;BME280;66122;47.130;16.844;2024-02-28T01:15:26;99604.75;;;7.36;100.00
77149;BME280;66122;47.130;16.844;2024-02-28T01:25:29;99600.56;;;7.32;100.00
77149;BME280;66122;47.130;16.844;2024-02-28T01:35:32;99599.91;;;7.27;100.00
77149;BME280;66122;47.130;16.844;2024-02-28T01:45:34;99608.84;;;7.23;100.00
77149;BME280;66122;47.130;16.844;2024-02-28T01:55:38;99622.09;;;7.21;100.00
77149;BME280;66122;47.130;16.844;2024-02-28T02:05:41;99621.09;;;7.03;100.00
77149;BME280;66122;47.130;16.844;2024-02-28T02:15:44;99633.84;;;6.92;100.00
77149;BME280;66122;47.130;16.844;2024-02-28T02:25:47;99632.16;;;6.91;100.00
77149;BME280;66122;47.130;16.844;2024-02-28T02:35:51;99620.66;;;6.92;100.00
77149;BME280;66122;47.130;16.844;2024-02-28T02:45:54;99644.16;;;6.98;100.00
77149;BME280;66122;47.130;16.844;2024-02-28T02:55:57;99662.28;;;6.84;100.00
77149;BME280;66122;47.130;16.844;2024-02-28T03:05:59;99658.31;;;6.74;100.00
77149;BME280;66122;47.130;16.844;2024-02-28T03:16:03;99666.25;;;6.73;100.00
77149;BME280;66122;47.130;16.844;2024-02-28T03:26:06;99663.38;;;6.57;100.00
77149;BME280;66122;47.130;16.844;2024-02-28T03:36:09;99672.56;;;6.47;100.00
77149;BME280;66122;47.130;16.844;2024-02-28T03:46:11;99676.59;;;6.77;100.00
77149;BME280;66122;47.130;16.844;2024-02-28T03:56:22;99686.00;;;6.84;100.00
77149;BME280;66122;47.130;16.844;2024-02-28T04:06:27;99677.09;;;6.65;100.00
77149;BME280;66122;47.130;16.844;2024-02-28T04:16:30;99687.19;;;6.54;100.00
77149;BME280;66122;47.130;16.844;2024-02-28T04:26:32;99691.88;;;6.46;100.00
77149;BME280;66122;47.130;16.844;2024-02-28T04:36:35;99688.78;;;6.35;100.00
77149;BME280;66122;47.130;16.844;2024-02-28T04:46:37;99683.88;;;6.02;100.00
77149;BME280;66122;47.130;16.844;2024-02-28T04:56:41;99688.81;;;5.86;100.00
77149;BME280;66122;47.130;16.844;2024-02-28T05:06:43;99683.34;;;5.68;100.00
77149;BME280;66122;47.130;16.844;2024-02-28T05:16:47;99684.53;;;5.59;100.00
77149;BME280;66122;47.130;16.844;2024-02-28T05:26:50;99690.34;;;5.42;100.00
77149;BME280;66122;47.130;16.844;2024-02-28T05:36:52;99699.31;;;5.37;100.00
77149;BME280;66122;47.130;16.844;2024-02-28T05:46:55;99714.00;;;5.42;100.00
77149;BME280;66122;47.130;16.844;2024-02-28T05:56:57;99726.38;;;5.65;100.00
77149;BME280;66122;47.130;16.844;2024-02-28T06:07:00;99733.81;;;6.04;100.00
77149;BME280;66122;47.130;16.844;2024-02-28T06:17:03;99744.88;;;6.37;100.00
77149;BME280;66122;47.130;16.844;2024-02-28T06:27:06;99755.94;;;6.46;100.00
77149;BME280;66122;47.130;16.844;2024-02-28T06:37:14;99764.06;;;6.15;100.00
77149;BME280;66122;47.130;16.844;2024-02-28T06:47:17;99770.03;;;6.44;100.00
77149;BME280;66122;47.130;16.844;2024-02-28T06:57:20;99795.81;;;6.82;100.00
77149;BME280;66122;47.130;16.844;2024-02-28T07:07:23;99782.78;;;7.01;100.00
77149;BME280;66122;47.130;16.844;2024-02-28T07:17:26;99813.91;;;7.35;100.00
77149;BME280;66122;47.130;16.844;2024-02-28T07:27:28;99824.69;;;7.72;100.00
77149;BME280;66122;47.130;16.844;2024-02-28T07:37:32;99822.09;;;8.13;100.00
77149;BME280;66122;47.130;16.844;2024-02-28T07:47:34;99819.56;;;8.30;100.00
77149;BME280;66122;47.130;16.844;2024-02-28T07:57:37;99825.31;;;8.41;100.00
77149;BME280;66122;47.130;16.844;2024-02-28T08:07:40;99833.00;;;9.22;100.00
77149;BME280;66122;47.130;16.844;2024-02-28T08:17:42;99826.72;;;9.61;100.00
77149;BME280;66122;47.130;16.844;2024-02-28T08:27:45;99841.34;;;10.38;100.00
77149;BME280;66122;47.130;16.844;2024-02-28T08:37:48;99835.72;;;10.94;100.00
77149;BME280;66122;47.130;16.844;2024-02-28T08:47:50;99834.56;;;11.16;100.00
77149;BME280;66122;47.130;16.844;2024-02-28T08:57:56;99842.91;;;12.02;100.00
77149;BME280;66122;47.130;16.844;2024-02-28T09:07:58;99863.63;;;12.84;100.00
77149;BME280;66122;47.130;16.844;2024-02-28T09:18:04;99863.75;;;12.97;99.21
77149;BME280;66122;47.130;16.844;2024-02-28T09:28:07;99880.72;;;13.51;96.92
77149;BME280;66122;47.130;16.844;2024-02-28T09:38:10;99877.28;;;13.63;94.02
77149;BME280;66122;47.130;16.844;2024-02-28T09:48:15;99888.97;;;14.01;90.22
77149;BME280;66122;47.130;16.844;2024-02-28T09:58:19;99902.22;;;14.42;89.58
77149;BME280;66122;47.130;16.844;2024-02-28T10:08:24;99902.91;;;14.84;87.82
77149;BME280;66122;47.130;16.844;2024-02-28T10:18:28;99908.84;;;15.51;85.13
77149;BME280;66122;47.130;16.844;2024-02-28T10:28:31;99908.56;;;15.92;79.81
77149;BME280;66122;47.130;16.844;2024-02-28T10:38:33;99909.97;;;16.09;79.40
77149;BME280;66122;47.130;16.844;2024-02-28T10:48:36;99905.06;;;16.85;74.43
77149;BME280;66122;47.130;16.844;2024-02-28T10:58:51;99901.19;;;17.78;72.04
77149;BME280;66122;47.130;16.844;2024-02-28T11:08:59;99900.59;;;19.12;64.62
77149;BME280;66122;47.130;16.844;2024-02-28T11:19:02;99895.59;;;19.28;62.28
77149;BME280;66122;47.130;16.844;2024-02-28T11:29:08;99895.06;;;20.53;57.45
77149;BME280;66122;47.130;16.844;2024-02-28T11:39:13;99893.22;;;21.29;54.38
77149;BME280;66122;47.130;16.844;2024-02-28T11:49:16;99878.81;;;20.91;53.60
77149;BME280;66122;47.130;16.844;2024-02-28T11:59:19;99875.38;;;19.74;56.65
77149;BME280;66122;47.130;16.844;2024-02-28T12:09:22;99867.78;;;19.08;60.97
77149;BME280;66122;47.130;16.844;2024-02-28T12:19:34;99859.06;;;22.37;49.46
77149;BME280;66122;47.130;16.844;2024-02-28T12:29:37;99866.28;;;21.19;52.66
77149;BME280;66122;47.130;16.844;2024-02-28T12:39:40;99868.56;;;21.51;53.54
77149;BME280;66122;47.130;16.844;2024-02-28T12:49:43;99842.00;;;23.06;47.90
77149;BME280;66122;47.130;16.844;2024-02-28T12:59:46;99850.09;;;20.05;52.83
77149;BME280;66122;47.130;16.844;2024-02-28T13:09:53;99843.44;;;20.67;52.25
77149;BME280;66122;47.130;16.844;2024-02-28T13:19:55;99843.00;;;20.62;57.36
77149;BME280;66122;47.130;16.844;2024-02-28T13:29:58;99843.50;;;19.50;63.18
77149;BME280;66122;47.130;16.844;2024-02-28T13:40:01;99847.53;;;18.21;69.76
77149;BME280;66122;47.130;16.844;2024-02-28T13:50:04;99834.94;;;16.69;74.67
77149;BME280;66122;47.130;16.844;2024-02-28T14:00:07;99847.78;;;15.94;79.88
77149;BME280;66122;47.130;16.844;2024-02-28T14:10:14;99853.66;;;15.75;81.00
77149;BME280;66122;47.130;16.844;2024-02-28T14:20:18;99857.09;;;15.65;81.42
77149;BME280;66122;47.130;16.844;2024-02-28T14:30:21;99863.81;;;15.21;85.09
77149;BME280;66122;47.130;16.844;2024-02-28T14:40:24;99868.56;;;15.05;85.61
77149;BME280;66122;47.130;16.844;2024-02-28T14:50:28;99875.91;;;14.63;88.19
77149;BME280;66122;47.130;16.844;2024-02-28T15:00:31;99886.53;;;14.38;88.21
77149;BME280;66122;47.130;16.844;2024-02-28T15:10:33;99891.63;;;14.01;90.36
77149;BME280;66122;47.130;16.844;2024-02-28T15:20:36;99905.91;;;13.74;92.32
77149;BME280;66122;47.130;16.844;2024-02-28T15:30:40;99889.75;;;13.48;91.61
77149;BME280;66122;47.130;16.844;2024-02-28T15:40:42;99895.22;;;13.18;93.48
77149;BME280;66122;47.130;16.844;2024-02-28T15:50:45;99901.44;;;12.75;95.94
77149;BME280;66122;47.130;16.844;2024-02-28T16:00:50;99919.31;;;12.43;99.61
77149;BME280;66122;47.130;16.844;2024-02-28T16:10:53;99941.75;;;12.23;100.00
77149;BME280;66122;47.130;16.844;2024-02-28T16:20:56;99958.56;;;11.92;98.35
77149;BME280;66122;47.130;16.844;2024-02-28T16:31:03;99968.25;;;11.60;97.95
77149;BME280;66122;47.130;16.844;2024-02-28T16:41:08;99975.41;;;11.27;97.83
77149;BME280;66122;47.130;16.844;2024-02-28T16:51:10;100005.78;;;11.04;97.79
77149;BME280;66122;47.130;16.844;2024-02-28T17:01:13;100008.94;;;10.78;96.74
77149;BME280;66122;47.130;16.844;2024-02-28T17:11:16;100017.25;;;10.53;95.57
77149;BME280;66122;47.130;16.844;2024-02-28T17:21:19;100034.50;;;10.26;97.09
77149;BME280;66122;47.130;16.844;2024-02-28T17:31:21;100040.28;;;9.96;98.51
77149;BME280;66122;47.130;16.844;2024-02-28T17:41:24;100063.13;;;9.60;100.00
77149;BME280;66122;47.130;16.844;2024-02-28T17:51:27;100074.56;;;9.42;100.00
77149;BME280;66122;47.130;16.844;2024-02-28T18:01:29;100080.75;;;9.40;100.00
77149;BME280;66122;47.130;16.844;2024-02-28T18:11:33;100094.38;;;9.31;100.00
77149;BME280;66122;47.130;16.844;2024-02-28T18:21:36;100085.00;;;9.04;100.00
77149;BME280;66122;47.130;16.844;2024-02-28T18:31:39;100088.59;;;8.81;100.00
77149;BME280;66122;47.130;16.844;2024-02-28T18:41:42;100084.81;;;8.67;100.00
77149;BME280;66122;47.130;16.844;2024-02-28T18:51:44;100103.59;;;8.37;100.00
77149;BME280;66122;47.130;16.844;2024-02-28T19:01:48;100105.50;;;8.34;100.00
77149;BME280;66122;47.130;16.844;2024-02-28T19:11:53;100115.78;;;8.18;100.00
77149;BME280;66122;47.130;16.844;2024-02-28T19:21:56;100120.03;;;7.99;100.00
77149;BME280;66122;47.130;16.844;2024-02-28T19:31:59;100113.91;;;7.98;100.00
77149;BME280;66122;47.130;16.844;2024-02-28T19:42:01;100139.41;;;7.74;100.00
77149;BME280;66122;47.130;16.844;2024-02-28T19:52:05;100140.16;;;7.53;100.00
77149;BME280;66122;47.130;16.844;2024-02-28T20:02:08;100140.84;;;7.58;100.00
77149;BME280;66122;47.130;16.844;2024-02-28T20:12:11;100145.34;;;7.56;100.00
77149;BME280;66122;47.130;16.844;2024-02-28T20:22:13;100139.47;;;7.48;100.00
77149;BME280;66122;47.130;16.844;2024-02-28T20:32:17;100152.16;;;7.37;100.00
77149;BME280;66122;47.130;16.844;2024-02-28T20:42:19;100163.75;;;7.33;100.00
77149;BME280;66122;47.130;16.844;2024-02-28T20:52:22;100163.81;;;7.30;100.00
77149;BME280;66122;47.130;16.844;2024-02-28T21:02:27;100177.25;;;7.22;100.00
77149;BME280;66122;47.130;16.844;2024-02-28T21:12:30;100180.22;;;7.13;100.00
77149;BME280;66122;47.130;16.844;2024-02-28T21:22:33;100191.03;;;7.05;100.00
77149;BME280;66122;47.130;16.844;2024-02-28T21:32:38;100190.78;;;7.13;100.00
77149;BME280;66122;47.130;16.844;2024-02-28T21:42:43;100171.47;;;7.13;100.00
77149;BME280;66122;47.130;16.844;2024-02-28T21:52:45;100181.22;;;7.09;100.00
77149;BME280;66122;47.130;16.844;2024-02-28T22:02:48;100172.31;;;7.13;100.00
77149;BME280;66122;47.130;16.844;2024-02-28T22:12:50;100172.03;;;7.21;100.00
77149;BME280;66122;47.130;16.844;2024-02-28T22:22:53;100159.56;;;6.99;100.00
77149;BME280;66122;47.130;16.844;2024-02-28T22:32:56;100172.41;;;6.84;100.00
77149;BME280;66122;47.130;16.844;2024-02-28T22:42:58;100160.38;;;6.75;100.00
77149;BME280;66122;47.130;16.844;2024-02-28T22:53:01;100180.91;;;6.64;100.00
77149;BME280;66122;47.130;16.844;2024-02-28T23:03:04;100181.00;;;6.04;100.00
77149;BME280;66122;47.130;16.844;2024-02-28T23:13:07;100196.00;;;6.00;100.00
77149;BME280;66122;47.130;16.844;2024-02-28T23:23:11;100200.44;;;5.66;100.00
77149;BME280;66122;47.130;16.844;2024-02-28T23:33:14;100195.41;;;5.91;100.00
77149;BME280;66122;47.130;16.844;2024-02-28T23:43:16;100189.63;;;6.09;100.00
77149;BME280;66122;47.130;16.844;2024-02-28T23:53:19;100191.19;;;6.14;100.00
